Morse, Louisiana
Current Conditions -  °F | °C
As of 4:55 PM on Thursday 27 Nov 2014 (Local Time) from K3R7 Reporting Station
Clear Clear  
Wind Chill: 56°   Ceiling: Unl
Heat Index: 56°   Visibility: 10mi
Dew Point: 33°   Wind: 5mph
Humidity: 41%   Direction: 30°NNE
Pressure: 30.43"   Gusts: NA
Location:  30.12°N, 92.5°W
Report Text: K3R7 272255Z AUTO 03004KT 10SM CLR 13/01 A3043 RMK AO2 T01340005
Loading
Personal Weather Stations






























Interactive Weather Map New forecast layout! Learn more

10-Day Weather Forecast

Advertisements
Track Severe Weather on mobile